sensor_id;sensor_type;location;lat;lon;timestamp;pressure;altitude;pressure_sealevel;temperature;humidity
72975;BME280;61166;54.228;37.632;2022-11-03T00:00:47;99182.84;;;0.77;nan
72975;BME280;61166;54.228;37.632;2022-11-03T00:03:13;99181.75;;;0.79;nan
72975;BME280;61166;54.228;37.632;2022-11-03T00:05:40;99178.50;;;0.77;nan
72975;BME280;61166;54.228;37.632;2022-11-03T00:08:07;99182.72;;;0.78;nan
72975;BME280;61166;54.228;37.632;2022-11-03T00:10:34;99188.69;;;0.79;nan
72975;BME280;61166;54.228;37.632;2022-11-03T00:13:00;99191.22;;;0.88;nan
72975;BME280;61166;54.228;37.632;2022-11-03T00:15:27;99183.53;;;0.79;nan
72975;BME280;61166;54.228;37.632;2022-11-03T00:17:53;99190.19;;;0.81;nan
72975;BME280;61166;54.228;37.632;2022-11-03T00:20:20;99199.72;;;0.81;nan
72975;BME280;61166;54.228;37.632;2022-11-03T00:22:47;99190.19;;;0.46;nan
72975;BME280;61166;54.228;37.632;2022-11-03T00:25:13;99198.47;;;0.49;nan
72975;BME280;61166;54.228;37.632;2022-11-03T00:27:40;99201.94;;;0.58;nan
72975;BME280;61166;54.228;37.632;2022-11-03T00:30:06;99204.50;;;0.58;nan
72975;BME280;61166;54.228;37.632;2022-11-03T00:32:33;99197.94;;;0.63;nan
72975;BME280;61166;54.228;37.632;2022-11-03T00:35:01;99199.03;;;0.61;nan
72975;BME280;61166;54.228;37.632;2022-11-03T00:37:27;99206.25;;;0.49;nan
72975;BME280;61166;54.228;37.632;2022-11-03T00:39:54;99212.22;;;0.50;nan
72975;BME280;61166;54.228;37.632;2022-11-03T00:42:20;99203.13;;;0.46;nan
72975;BME280;61166;54.228;37.632;2022-11-03T00:44:47;99196.25;;;0.37;nan
72975;BME280;61166;54.228;37.632;2022-11-03T00:47:13;99201.53;;;0.17;nan
72975;BME280;61166;54.228;37.632;2022-11-03T00:49:43;99207.78;;;0.15;nan
72975;BME280;61166;54.228;37.632;2022-11-03T00:52:09;99199.50;;;0.11;nan
72975;BME280;61166;54.228;37.632;2022-11-03T00:54:36;99203.06;;;0.10;nan
72975;BME280;61166;54.228;37.632;2022-11-03T00:57:02;99200.19;;;0.13;nan
72975;BME280;61166;54.228;37.632;2022-11-03T00:59:29;99200.38;;;0.02;nan
72975;BME280;61166;54.228;37.632;2022-11-03T01:01:55;99201.72;;;0.06;nan
72975;BME280;61166;54.228;37.632;2022-11-03T01:04:22;99198.25;;;0.15;nan
72975;BME280;61166;54.228;37.632;2022-11-03T01:06:51;99202.47;;;0.16;nan
72975;BME280;61166;54.228;37.632;2022-11-03T01:09:20;99195.06;;;0.04;nan
72975;BME280;61166;54.228;37.632;2022-11-03T01:12:00;99200.22;;;0.04;nan
72975;BME280;61166;54.228;37.632;2022-11-03T01:14:30;99205.63;;;0.10;nan
72975;BME280;61166;54.228;37.632;2022-11-03T01:16:58;99206.88;;;0.06;nan
72975;BME280;61166;54.228;37.632;2022-11-03T01:19:25;99204.28;;;0.06;nan
72975;BME280;61166;54.228;37.632;2022-11-03T01:21:52;99198.00;;;-0.09;nan
72975;BME280;61166;54.228;37.632;2022-11-03T01:24:19;99209.06;;;0.01;nan
72975;BME280;61166;54.228;37.632;2022-11-03T01:26:46;99204.91;;;0.00;nan
72975;BME280;61166;54.228;37.632;2022-11-03T01:29:13;99220.69;;;-0.03;nan
72975;BME280;61166;54.228;37.632;2022-11-03T01:31:39;99219.59;;;-0.01;nan
72975;BME280;61166;54.228;37.632;2022-11-03T01:34:11;99225.19;;;-0.05;nan
72975;BME280;61166;54.228;37.632;2022-11-03T01:36:39;99224.53;;;-0.07;nan
72975;BME280;61166;54.228;37.632;2022-11-03T01:39:05;99217.63;;;-0.16;nan
72975;BME280;61166;54.228;37.632;2022-11-03T01:41:32;99217.47;;;-0.15;nan
72975;BME280;61166;54.228;37.632;2022-11-03T01:46:48;99222.97;;;-0.37;nan
72975;BME280;61166;54.228;37.632;2022-11-03T01:49:28;99227.03;;;-0.25;nan
72975;BME280;61166;54.228;37.632;2022-11-03T01:52:23;99223.75;;;-0.17;nan
72975;BME280;61166;54.228;37.632;2022-11-03T01:54:51;99219.63;;;-0.10;nan
72975;BME280;61166;54.228;37.632;2022-11-03T01:57:25;99225.88;;;-0.03;nan
72975;BME280;61166;54.228;37.632;2022-11-03T01:59:53;99220.69;;;-0.03;nan
72975;BME280;61166;54.228;37.632;2022-11-03T02:02:21;99225.13;;;0.05;nan
72975;BME280;61166;54.228;37.632;2022-11-03T02:04:48;99223.06;;;0.08;nan
72975;BME280;61166;54.228;37.632;2022-11-03T02:07:29;99221.59;;;0.06;nan
72975;BME280;61166;54.228;37.632;2022-11-03T02:09:58;99228.44;;;-0.03;nan
72975;BME280;61166;54.228;37.632;2022-11-03T02:12:24;99237.06;;;-0.12;nan
72975;BME280;61166;54.228;37.632;2022-11-03T02:14:55;99237.34;;;-0.15;nan
72975;BME280;61166;54.228;37.632;2022-11-03T02:17:26;99231.38;;;-0.25;nan
72975;BME280;61166;54.228;37.632;2022-11-03T02:20:00;99238.34;;;-0.36;nan
72975;BME280;61166;54.228;37.632;2022-11-03T02:27:58;99236.47;;;-0.43;nan
72975;BME280;61166;54.228;37.632;2022-11-03T02:30:37;99220.69;;;-0.50;nan
72975;BME280;61166;54.228;37.632;2022-11-03T02:35:47;99229.53;;;-0.43;nan
72975;BME280;61166;54.228;37.632;2022-11-03T02:38:18;99226.81;;;-0.51;nan
72975;BME280;61166;54.228;37.632;2022-11-03T02:40:48;99220.81;;;-0.42;nan
72975;BME280;61166;54.228;37.632;2022-11-03T02:43:19;99213.75;;;-0.40;nan
72975;BME280;61166;54.228;37.632;2022-11-03T02:45:48;99221.59;;;-0.31;nan
72975;BME280;61166;54.228;37.632;2022-11-03T02:48:17;99227.06;;;-0.35;nan
72975;BME280;61166;54.228;37.632;2022-11-03T02:50:46;99231.06;;;-0.13;nan
72975;BME280;61166;54.228;37.632;2022-11-03T02:53:14;99225.88;;;-0.03;nan
72975;BME280;61166;54.228;37.632;2022-11-03T03:01:12;99220.25;;;0.29;nan
72975;BME280;61166;54.228;37.632;2022-11-03T03:03:47;99218.84;;;0.35;nan
72975;BME280;61166;54.228;37.632;2022-11-03T03:06:24;99222.25;;;0.35;nan
72975;BME280;61166;54.228;37.632;2022-11-03T03:08:59;99225.84;;;0.24;nan
72975;BME280;61166;54.228;37.632;2022-11-03T03:11:27;99229.56;;;0.12;nan
72975;BME280;61166;54.228;37.632;2022-11-03T03:13:53;99230.44;;;0.03;nan
72975;BME280;61166;54.228;37.632;2022-11-03T03:16:25;99235.56;;;-0.15;nan
72975;BME280;61166;54.228;37.632;2022-11-03T03:19:03;99232.47;;;-0.28;nan
72975;BME280;61166;54.228;37.632;2022-11-03T03:21:37;99240.88;;;-0.16;nan
72975;BME280;61166;54.228;37.632;2022-11-03T03:24:11;99237.66;;;-0.38;nan
72975;BME280;61166;54.228;37.632;2022-11-03T03:26:46;99234.53;;;-0.31;nan
72975;BME280;61166;54.228;37.632;2022-11-03T03:29:19;99225.41;;;-0.26;nan
72975;BME280;61166;54.228;37.632;2022-11-03T03:31:54;99229.59;;;-0.15;nan
72975;BME280;61166;54.228;37.632;2022-11-03T03:34:24;99223.47;;;-0.14;nan
72975;BME280;61166;54.228;37.632;2022-11-03T03:37:03;99230.94;;;-0.11;nan
72975;BME280;61166;54.228;37.632;2022-11-03T03:39:35;99230.22;;;-0.04;nan
72975;BME280;61166;54.228;37.632;2022-11-03T03:42:04;99232.97;;;-0.15;nan
72975;BME280;61166;54.228;37.632;2022-11-03T03:44:36;99232.16;;;-0.15;nan
72975;BME280;61166;54.228;37.632;2022-11-03T03:47:10;99229.88;;;-0.18;nan
72975;BME280;61166;54.228;37.632;2022-11-03T03:49:39;99224.13;;;-0.12;nan
72975;BME280;61166;54.228;37.632;2022-11-03T03:52:06;99232.94;;;-0.05;nan
72975;BME280;61166;54.228;37.632;2022-11-03T03:54:34;99232.22;;;0.03;nan
72975;BME280;61166;54.228;37.632;2022-11-03T03:57:04;99233.47;;;-0.02;nan
72975;BME280;61166;54.228;37.632;2022-11-03T03:59:32;99230.50;;;-0.07;nan
72975;BME280;61166;54.228;37.632;2022-11-03T04:01:58;99236.78;;;-0.09;nan
72975;BME280;61166;54.228;37.632;2022-11-03T04:04:25;99237.22;;;-0.23;nan
72975;BME280;61166;54.228;37.632;2022-11-03T04:06:52;99230.19;;;-0.31;nan
72975;BME280;61166;54.228;37.632;2022-11-03T04:09:19;99235.75;;;-0.36;nan
72975;BME280;61166;54.228;37.632;2022-11-03T04:11:45;99239.09;;;-0.16;nan
72975;BME280;61166;54.228;37.632;2022-11-03T04:14:12;99239.34;;;-0.09;nan
72975;BME280;61166;54.228;37.632;2022-11-03T04:16:38;99242.25;;;0.06;nan
72975;BME280;61166;54.228;37.632;2022-11-03T04:19:08;99239.22;;;0.20;nan
72975;BME280;61166;54.228;37.632;2022-11-03T04:21:36;99241.59;;;0.31;nan
72975;BME280;61166;54.228;37.632;2022-11-03T04:24:02;99242.22;;;0.43;nan
72975;BME280;61166;54.228;37.632;2022-11-03T04:26:29;99247.69;;;0.40;nan
72975;BME280;61166;54.228;37.632;2022-11-03T04:28:56;99254.09;;;0.36;nan
72975;BME280;61166;54.228;37.632;2022-11-03T04:31:24;99251.00;;;0.32;nan
72975;BME280;61166;54.228;37.632;2022-11-03T04:33:51;99248.50;;;0.40;nan
72975;BME280;61166;54.228;37.632;2022-11-03T04:36:20;99254.91;;;0.36;nan
72975;BME280;61166;54.228;37.632;2022-11-03T04:38:48;99259.53;;;0.42;nan
72975;BME280;61166;54.228;37.632;2022-11-03T04:41:28;99255.44;;;0.40;nan
72975;BME280;61166;54.228;37.632;2022-11-03T04:43:57;99259.13;;;0.37;nan
72975;BME280;61166;54.228;37.632;2022-11-03T04:46:27;99262.66;;;0.09;nan
72975;BME280;61166;54.228;37.632;2022-11-03T04:48:58;99265.34;;;-0.11;nan
72975;BME280;61166;54.228;37.632;2022-11-03T04:51:29;99258.31;;;-0.28;nan
72975;BME280;61166;54.228;37.632;2022-11-03T04:54:12;99266.47;;;-0.23;nan
72975;BME280;61166;54.228;37.632;2022-11-03T04:56:39;99265.66;;;-0.23;nan
72975;BME280;61166;54.228;37.632;2022-11-03T04:59:14;99263.91;;;-0.32;nan
72975;BME280;61166;54.228;37.632;2022-11-03T05:01:42;99266.22;;;-0.39;nan
72975;BME280;61166;54.228;37.632;2022-11-03T05:04:16;99262.91;;;-0.69;nan
72975;BME280;61166;54.228;37.632;2022-11-03T05:06:49;99270.09;;;-0.72;nan
72975;BME280;61166;54.228;37.632;2022-11-03T05:09:23;99280.56;;;-0.64;nan
72975;BME280;61166;54.228;37.632;2022-11-03T05:11:52;99278.13;;;-0.65;nan
72975;BME280;61166;54.228;37.632;2022-11-03T05:14:22;99277.13;;;-0.55;nan
72975;BME280;61166;54.228;37.632;2022-11-03T05:16:52;99273.09;;;-0.67;nan
72975;BME280;61166;54.228;37.632;2022-11-03T05:19:31;99273.31;;;-0.51;nan
72975;BME280;61166;54.228;37.632;2022-11-03T05:21:59;99262.94;;;-0.31;nan
72975;BME280;61166;54.228;37.632;2022-11-03T05:24:29;99276.44;;;-0.38;nan
72975;BME280;61166;54.228;37.632;2022-11-03T05:26:57;99271.16;;;-0.55;nan
72975;BME280;61166;54.228;37.632;2022-11-03T05:29:37;99282.84;;;-0.51;nan
72975;BME280;61166;54.228;37.632;2022-11-03T05:32:14;99278.63;;;-0.52;nan
72975;BME280;61166;54.228;37.632;2022-11-03T05:34:46;99269.06;;;-0.32;nan
72975;BME280;61166;54.228;37.632;2022-11-03T05:37:30;99276.72;;;-0.50;nan
72975;BME280;61166;54.228;37.632;2022-11-03T05:40:09;99276.31;;;-0.46;nan
72975;BME280;61166;54.228;37.632;2022-11-03T05:42:42;99273.75;;;-0.55;nan
72975;BME280;61166;54.228;37.632;2022-11-03T05:47:52;99288.13;;;-0.34;nan
72975;BME280;61166;54.228;37.632;2022-11-03T05:50:22;99282.13;;;-0.34;nan
72975;BME280;61166;54.228;37.632;2022-11-03T05:52:56;99288.25;;;-0.25;nan
72975;BME280;61166;54.228;37.632;2022-11-03T05:55:28;99288.78;;;-0.22;nan
72975;BME280;61166;54.228;37.632;2022-11-03T05:58:28;99286.50;;;-0.35;nan
72975;BME280;61166;54.228;37.632;2022-11-03T06:00:53;99295.34;;;-0.47;nan
72975;BME280;61166;54.228;37.632;2022-11-03T06:03:26;99292.88;;;-0.39;nan
72975;BME280;61166;54.228;37.632;2022-11-03T06:05:59;99285.50;;;-0.14;nan
72975;BME280;61166;54.228;37.632;2022-11-03T06:08:31;99274.59;;;-0.08;nan
72975;BME280;61166;54.228;37.632;2022-11-03T06:11:25;99284.84;;;0.11;nan
72975;BME280;61166;54.228;37.632;2022-11-03T06:13:54;99286.56;;;0.20;nan
72975;BME280;61166;54.228;37.632;2022-11-03T06:18:59;99285.91;;;0.46;nan
72975;BME280;61166;54.228;37.632;2022-11-03T06:21:27;99286.00;;;0.54;nan
72975;BME280;61166;54.228;37.632;2022-11-03T06:23:53;99283.72;;;0.51;nan
72975;BME280;61166;54.228;37.632;2022-11-03T06:26:24;99289.03;;;0.67;nan
72975;BME280;61166;54.228;37.632;2022-11-03T06:28:53;99286.94;;;0.80;nan
72975;BME280;61166;54.228;37.632;2022-11-03T06:31:25;99288.63;;;0.89;nan
72975;BME280;61166;54.228;37.632;2022-11-03T06:33:53;99294.72;;;0.98;nan
72975;BME280;61166;54.228;37.632;2022-11-03T06:36:23;99286.44;;;1.12;nan
72975;BME280;61166;54.228;37.632;2022-11-03T06:39:00;99293.44;;;1.20;nan
72975;BME280;61166;54.228;37.632;2022-11-03T06:41:35;99296.47;;;1.33;nan
72975;BME280;61166;54.228;37.632;2022-11-03T06:44:17;99289.88;;;1.21;nan
72975;BME280;61166;54.228;37.632;2022-11-03T06:46:45;99297.22;;;1.25;nan
72975;BME280;61166;54.228;37.632;2022-11-03T06:51:54;99292.84;;;1.26;nan
72975;BME280;61166;54.228;37.632;2022-11-03T06:54:21;99299.88;;;1.33;nan
72975;BME280;61166;54.228;37.632;2022-11-03T06:56:50;99291.44;;;1.31;nan
72975;BME280;61166;54.228;37.632;2022-11-03T06:59:18;99292.25;;;1.32;nan
72975;BME280;61166;54.228;37.632;2022-11-03T07:01:47;99293.50;;;1.28;nan
72975;BME280;61166;54.228;37.632;2022-11-03T07:04:22;99293.50;;;1.28;nan
72975;BME280;61166;54.228;37.632;2022-11-03T07:06:51;99293.56;;;1.36;nan
72975;BME280;61166;54.228;37.632;2022-11-03T07:09:22;99292.22;;;1.50;nan
72975;BME280;61166;54.228;37.632;2022-11-03T07:11:56;99290.00;;;1.55;nan
72975;BME280;61166;54.228;37.632;2022-11-03T07:14:41;99292.88;;;1.52;nan
72975;BME280;61166;54.228;37.632;2022-11-03T07:17:15;99300.53;;;1.53;nan
72975;BME280;61166;54.228;37.632;2022-11-03T07:19:44;99305.31;;;1.66;nan
72975;BME280;61166;54.228;37.632;2022-11-03T07:22:18;99297.78;;;1.55;nan
72975;BME280;61166;54.228;37.632;2022-11-03T07:24:55;99308.00;;;1.56;nan
72975;BME280;61166;54.228;37.632;2022-11-03T07:27:28;99303.56;;;1.31;nan
72975;BME280;61166;54.228;37.632;2022-11-03T07:32:34;99304.63;;;1.03;nan
72975;BME280;61166;54.228;37.632;2022-11-03T07:35:24;99302.78;;;0.95;nan
72975;BME280;61166;54.228;37.632;2022-11-03T07:38:10;99300.31;;;0.76;nan
72975;BME280;61166;54.228;37.632;2022-11-03T07:40:37;99307.06;;;0.86;nan
72975;BME280;61166;54.228;37.632;2022-11-03T07:43:16;99309.22;;;1.09;nan
72975;BME280;61166;54.228;37.632;2022-11-03T07:48:26;99311.78;;;1.44;nan
72975;BME280;61166;54.228;37.632;2022-11-03T07:50:58;99313.03;;;1.40;nan
72975;BME280;61166;54.228;37.632;2022-11-03T07:53:35;99306.91;;;1.41;nan
72975;BME280;61166;54.228;37.632;2022-11-03T07:56:21;99309.63;;;1.40;nan
72975;BME280;61166;54.228;37.632;2022-11-03T07:58:55;99312.59;;;1.45;nan
72975;BME280;61166;54.228;37.632;2022-11-03T08:01:26;99313.84;;;1.58;nan
72975;BME280;61166;54.228;37.632;2022-11-03T08:04:16;99313.03;;;1.58;nan
72975;BME280;61166;54.228;37.632;2022-11-03T08:06:45;99313.09;;;1.66;nan
72975;BME280;61166;54.228;37.632;2022-11-03T08:09:11;99309.09;;;1.80;nan
72975;BME280;61166;54.228;37.632;2022-11-03T08:11:38;99306.78;;;1.69;nan
72975;BME280;61166;54.228;37.632;2022-11-03T08:14:05;99308.00;;;1.82;nan
72975;BME280;61166;54.228;37.632;2022-11-03T08:16:32;99304.53;;;1.74;nan
72975;BME280;61166;54.228;37.632;2022-11-03T08:18:58;99295.84;;;1.57;nan
72975;BME280;61166;54.228;37.632;2022-11-03T08:21:25;99304.00;;;1.44;nan
72975;BME280;61166;54.228;37.632;2022-11-03T08:23:51;99305.78;;;1.26;nan
72975;BME280;61166;54.228;37.632;2022-11-03T08:26:18;99312.53;;;1.01;nan
72975;BME280;61166;54.228;37.632;2022-11-03T08:28:45;99307.88;;;0.87;nan
72975;BME280;61166;54.228;37.632;2022-11-03T08:31:11;99305.03;;;0.80;nan
72975;BME280;61166;54.228;37.632;2022-11-03T08:33:39;99297.91;;;1.10;nan
72975;BME280;61166;54.228;37.632;2022-11-03T08:36:06;99302.31;;;1.35;nan
72975;BME280;61166;54.228;37.632;2022-11-03T08:38:33;99301.94;;;1.30;nan
72975;BME280;61166;54.228;37.632;2022-11-03T08:40:59;99299.53;;;1.11;nan
72975;BME280;61166;54.228;37.632;2022-11-03T08:43:26;99299.06;;;1.33;nan
72975;BME280;61166;54.228;37.632;2022-11-03T08:45:53;99295.03;;;1.56;nan
72975;BME280;61166;54.228;37.632;2022-11-03T08:48:21;99294.78;;;1.68;nan
72975;BME280;61166;54.228;37.632;2022-11-03T08:50:48;99289.91;;;1.64;nan
72975;BME280;61166;54.228;37.632;2022-11-03T08:53:15;99286.50;;;1.64;nan
72975;BME280;61166;54.228;37.632;2022-11-03T08:55:42;99289.25;;;1.62;nan
72975;BME280;61166;54.228;37.632;2022-11-03T08:58:08;99289.13;;;1.46;nan
72975;BME280;61166;54.228;37.632;2022-11-03T09:00:35;99292.06;;;1.51;nan
72975;BME280;61166;54.228;37.632;2022-11-03T09:03:06;99288.28;;;1.63;nan
72975;BME280;61166;54.228;37.632;2022-11-03T09:05:33;99280.22;;;1.75;nan
72975;BME280;61166;54.228;37.632;2022-11-03T09:08:00;99284.44;;;1.76;nan
72975;BME280;61166;54.228;37.632;2022-11-03T09:10:46;99288.78;;;1.93;nan
72975;BME280;61166;54.228;37.632;2022-11-03T09:13:13;99292.06;;;2.03;nan
72975;BME280;61166;54.228;37.632;2022-11-03T09:15:40;99293.78;;;2.20;nan
72975;BME280;61166;54.228;37.632;2022-11-03T09:18:06;99297.69;;;2.24;nan
72975;BME280;61166;54.228;37.632;2022-11-03T09:20:33;99299.88;;;2.45;nan
72975;BME280;61166;54.228;37.632;2022-11-03T09:23:00;99297.75;;;2.41;nan
72975;BME280;61166;54.228;37.632;2022-11-03T09:25:26;99306.84;;;2.45;nan
72975;BME280;61166;54.228;37.632;2022-11-03T09:27:53;99308.47;;;2.46;nan
72975;BME280;61166;54.228;37.632;2022-11-03T09:30:19;99300.44;;;2.65;nan
72975;BME280;61166;54.228;37.632;2022-11-03T09:32:46;99301.75;;;2.69;nan
72975;BME280;61166;54.228;37.632;2022-11-03T09:35:13;99303.56;;;2.26;nan
72975;BME280;61166;54.228;37.632;2022-11-03T09:37:40;99310.84;;;2.23;nan
72975;BME280;61166;54.228;37.632;2022-11-03T09:40:08;99307.47;;;2.05;nan
72975;BME280;61166;54.228;37.632;2022-11-03T09:42:35;99307.34;;;2.06;nan
72975;BME280;61166;54.228;37.632;2022-11-03T09:45:03;99311.19;;;2.02;nan
72975;BME280;61166;54.228;37.632;2022-11-03T09:47:33;99313.94;;;2.01;nan
72975;BME280;61166;54.228;37.632;2022-11-03T09:50:01;99315.31;;;1.87;nan
72975;BME280;61166;54.228;37.632;2022-11-03T09:52:29;99317.81;;;1.96;nan
72975;BME280;61166;54.228;37.632;2022-11-03T09:54:56;99319.09;;;1.67;nan
72975;BME280;61166;54.228;37.632;2022-11-03T09:57:25;99323.84;;;1.53;nan
72975;BME280;61166;54.228;37.632;2022-11-03T09:59:53;99319.78;;;1.51;nan
72975;BME280;61166;54.228;37.632;2022-11-03T10:02:24;99318.94;;;1.68;nan
72975;BME280;61166;54.228;37.632;2022-11-03T10:04:53;99326.66;;;1.86;nan
72975;BME280;61166;54.228;37.632;2022-11-03T10:07:22;99319.63;;;2.04;nan
72975;BME280;61166;54.228;37.632;2022-11-03T10:09:52;99316.19;;;2.21;nan
72975;BME280;61166;54.228;37.632;2022-11-03T10:12:21;99310.22;;;2.37;nan
72975;BME280;61166;54.228;37.632;2022-11-03T10:14:49;99314.47;;;2.46;nan
72975;BME280;61166;54.228;37.632;2022-11-03T10:17:20;99313.88;;;2.60;nan
72975;BME280;61166;54.228;37.632;2022-11-03T10:19:54;99302.41;;;2.71;nan
72975;BME280;61166;54.228;37.632;2022-11-03T10:22:21;99307.47;;;2.81;nan
72975;BME280;61166;54.228;37.632;2022-11-03T10:24:48;99303.44;;;2.86;nan
72975;BME280;61166;54.228;37.632;2022-11-03T10:27:22;99306.91;;;2.61;nan
72975;BME280;61166;54.228;37.632;2022-11-03T10:30:06;99304.09;;;2.46;nan
72975;BME280;61166;54.228;37.632;2022-11-03T10:32:34;99305.19;;;2.02;nan
72975;BME280;61166;54.228;37.632;2022-11-03T10:35:30;99310.59;;;1.82;nan
72975;BME280;61166;54.228;37.632;2022-11-03T10:38:26;99303.53;;;1.67;nan
72975;BME280;61166;54.228;37.632;2022-11-03T10:40:53;99305.53;;;1.73;nan
72975;BME280;61166;54.228;37.632;2022-11-03T10:43:20;99302.41;;;1.95;nan
72975;BME280;61166;54.228;37.632;2022-11-03T10:45:47;99303.31;;;2.12;nan
72975;BME280;61166;54.228;37.632;2022-11-03T10:48:14;99298.06;;;2.29;nan
72975;BME280;61166;54.228;37.632;2022-11-03T10:50:42;99301.66;;;2.45;nan
72975;BME280;61166;54.228;37.632;2022-11-03T10:53:16;99296.50;;;2.53;nan
72975;BME280;61166;54.228;37.632;2022-11-03T10:55:43;99298.28;;;2.52;nan
72975;BME280;61166;54.228;37.632;2022-11-03T10:58:10;99300.25;;;2.58;nan
72975;BME280;61166;54.228;37.632;2022-11-03T11:00:39;99290.34;;;2.54;nan
72975;BME280;61166;54.228;37.632;2022-11-03T11:03:06;99293.06;;;2.44;nan
72975;BME280;61166;54.228;37.632;2022-11-03T11:05:34;99292.28;;;2.52;nan
72975;BME280;61166;54.228;37.632;2022-11-03T11:08:01;99302.16;;;2.48;nan
72975;BME280;61166;54.228;37.632;2022-11-03T11:10:29;99296.50;;;2.53;nan
72975;BME280;61166;54.228;37.632;2022-11-03T11:13:23;99322.31;;;2.54;nan
72975;BME280;61166;54.228;37.632;2022-11-03T11:15:55;99305.88;;;2.46;nan
72975;BME280;61166;54.228;37.632;2022-11-03T11:23:45;99299.09;;;2.53;nan
72975;BME280;61166;54.228;37.632;2022-11-03T11:31:37;99300.53;;;2.47;nan
72975;BME280;61166;54.228;37.632;2022-11-03T11:36:38;99290.56;;;2.26;nan
72975;BME280;61166;54.228;37.632;2022-11-03T11:42:05;99291.38;;;1.93;nan
72975;BME280;61166;54.228;37.632;2022-11-03T11:44:55;99294.31;;;1.98;nan
72975;BME280;61166;54.228;37.632;2022-11-03T11:52:43;99290.28;;;1.70;nan
72975;BME280;61166;54.228;37.632;2022-11-03T11:58:03;99329.25;;;1.24;nan
72975;BME280;61166;54.228;37.632;2022-11-03T12:00:33;99309.13;;;1.36;nan
72975;BME280;61166;54.228;37.632;2022-11-03T12:03:01;99291.31;;;1.59;nan
72975;BME280;61166;54.228;37.632;2022-11-03T12:05:33;99293.25;;;1.57;nan
72975;BME280;61166;54.228;37.632;2022-11-03T12:08:01;99286.66;;;1.62;nan
72975;BME280;61166;54.228;37.632;2022-11-03T12:10:29;99289.94;;;1.47;nan
72975;BME280;61166;54.228;37.632;2022-11-03T12:12:58;99300.09;;;1.22;nan
72975;BME280;61166;54.228;37.632;2022-11-03T12:21:09;99313.56;;;1.44;nan
72975;BME280;61166;54.228;37.632;2022-11-03T12:23:37;99302.44;;;1.51;nan
72975;BME280;61166;54.228;37.632;2022-11-03T12:26:04;99304.97;;;1.43;nan
72975;BME280;61166;54.228;37.632;2022-11-03T12:28:35;99295.78;;;1.31;nan
72975;BME280;61166;54.228;37.632;2022-11-03T12:31:02;99305.72;;;1.18;nan
72975;BME280;61166;54.228;37.632;2022-11-03T12:33:29;99299.66;;;0.91;nan
72975;BME280;61166;54.228;37.632;2022-11-03T12:35:56;99312.09;;;1.06;nan
72975;BME280;61166;54.228;37.632;2022-11-03T12:38:24;99300.47;;;0.92;nan
72975;BME280;61166;54.228;37.632;2022-11-03T12:40:51;99312.75;;;0.90;nan
72975;BME280;61166;54.228;37.632;2022-11-03T12:43:18;99311.94;;;0.89;nan
72975;BME280;61166;54.228;37.632;2022-11-03T12:45:45;99318.00;;;0.80;nan
72975;BME280;61166;54.228;37.632;2022-11-03T12:48:11;99309.50;;;0.60;nan
72975;BME280;61166;54.228;37.632;2022-11-03T12:50:38;99311.28;;;0.60;nan
72975;BME280;61166;54.228;37.632;2022-11-03T12:53:05;99314.47;;;0.54;nan
72975;BME280;61166;54.228;37.632;2022-11-03T12:55:34;99315.63;;;0.42;nan
72975;BME280;61166;54.228;37.632;2022-11-03T12:58:04;99317.72;;;0.28;nan
72975;BME280;61166;54.228;37.632;2022-11-03T13:00:31;99301.91;;;0.31;nan
72975;BME280;61166;54.228;37.632;2022-11-03T13:02:58;99313.97;;;0.13;nan
72975;BME280;61166;54.228;37.632;2022-11-03T13:05:24;99319.69;;;0.07;nan
72975;BME280;61166;54.228;37.632;2022-11-03T13:07:51;99315.91;;;0.02;nan
72975;BME280;61166;54.228;37.632;2022-11-03T13:10:18;99315.09;;;0.01;nan
72975;BME280;61166;54.228;37.632;2022-11-03T13:12:44;99311.84;;;-0.01;nan
72975;BME280;61166;54.228;37.632;2022-11-03T13:15:11;99315.34;;;0.08;nan
72975;BME280;61166;54.228;37.632;2022-11-03T13:17:39;99315.91;;;0.02;nan
72975;BME280;61166;54.228;37.632;2022-11-03T13:20:25;99323.25;;;0.06;nan
72975;BME280;61166;54.228;37.632;2022-11-03T13:22:52;99328.38;;;0.16;nan
72975;BME280;61166;54.228;37.632;2022-11-03T13:25:18;99319.06;;;0.32;nan
72975;BME280;61166;54.228;37.632;2022-11-03T13:27:45;99329.09;;;0.45;nan
72975;BME280;61166;54.228;37.632;2022-11-03T13:30:14;99320.63;;;0.53;nan
72975;BME280;61166;54.228;37.632;2022-11-03T13:32:41;99323.38;;;0.69;nan
72975;BME280;61166;54.228;37.632;2022-11-03T13:35:08;99318.28;;;0.77;nan
72975;BME280;61166;54.228;37.632;2022-11-03T13:37:39;99329.69;;;0.84;nan
72975;BME280;61166;54.228;37.632;2022-11-03T13:40:07;99324.22;;;0.87;nan
72975;BME280;61166;54.228;37.632;2022-11-03T13:42:34;99324.22;;;0.87;nan
72975;BME280;61166;54.228;37.632;2022-11-03T13:45:04;99324.31;;;0.95;nan
72975;BME280;61166;54.228;37.632;2022-11-03T13:47:31;99328.34;;;0.80;nan
72975;BME280;61166;54.228;37.632;2022-11-03T13:50:16;99319.66;;;0.72;nan
72975;BME280;61166;54.228;37.632;2022-11-03T13:52:43;99321.22;;;0.64;nan
72975;BME280;61166;54.228;37.632;2022-11-03T13:55:11;99324.09;;;0.61;nan
72975;BME280;61166;54.228;37.632;2022-11-03T13:57:57;99326.75;;;0.52;nan
72975;BME280;61166;54.228;37.632;2022-11-03T14:00:44;99326.72;;;0.24;nan
72975;BME280;61166;54.228;37.632;2022-11-03T14:03:10;99324.84;;;0.17;nan
72975;BME280;61166;54.228;37.632;2022-11-03T14:05:58;99323.44;;;0.32;nan
72975;BME280;61166;54.228;37.632;2022-11-03T14:08:25;99329.22;;;0.44;nan
72975;BME280;61166;54.228;37.632;2022-11-03T14:10:51;99329.34;;;0.52;nan
72975;BME280;61166;54.228;37.632;2022-11-03T14:13:22;99325.50;;;0.56;nan
72975;BME280;61166;54.228;37.632;2022-11-03T14:15:49;99326.53;;;0.63;nan
72975;BME280;61166;54.228;37.632;2022-11-03T14:18:15;99325.94;;;0.69;nan
72975;BME280;61166;54.228;37.632;2022-11-03T14:20:42;99324.69;;;0.73;nan
72975;BME280;61166;54.228;37.632;2022-11-03T14:23:08;99331.22;;;0.77;nan
72975;BME280;61166;54.228;37.632;2022-11-03T14:25:35;99337.16;;;0.60;nan
72975;BME280;61166;54.228;37.632;2022-11-03T14:28:02;99335.34;;;0.70;nan
72975;BME280;61166;54.228;37.632;2022-11-03T14:30:28;99333.53;;;0.80;nan
72975;BME280;61166;54.228;37.632;2022-11-03T14:32:55;99333.09;;;0.85;nan
72975;BME280;61166;54.228;37.632;2022-11-03T14:35:25;99335.81;;;0.83;nan